Time;durP1;ratioP1;P1;durP2;ratioP2;P2;SDS_P1;SDS_P2;PMS_P1;PMS_P2;Temp;Humidity;BMP_temperature;BMP_pressure;BME280_temperature;BME280_humidity;BME280_pressure;Samples;Min_cycle;Max_cycle;Signal;HPM_P1;HPM_P2
2022/03/31 00:01:27;;;;;;;17.10;10.00;;;;;;;10.52;100.00;96803.22;5118229;28;20047;-95
2022/03/31 00:03:53;;;;;;;18.27;9.88;;;;;;;10.58;100.00;96802.84;5117608;28;20052;-94
2022/03/31 00:06:19;;;;;;;16.58;10.18;;;;;;;10.60;100.00;96802.75;5116379;28;20135;-94
2022/03/31 00:08:45;;;;;;;18.52;11.63;;;;;;;10.55;100.00;96773.78;5116137;28;20055;-94
2022/03/31 00:11:12;;;;;;;21.50;12.70;;;;;;;10.45;100.00;96770.81;5115664;28;20044;-94
2022/03/31 00:13:41;;;;;;;23.38;13.48;;;;;;;10.46;100.00;96793.78;5114502;28;20058;-93
2022/03/31 00:16:06;;;;;;;27.30;15.77;;;;;;;10.21;100.00;96777.50;5114712;28;20040;-96
2022/03/31 00:18:34;;;;;;;28.38;16.05;;;;;;;10.22;100.00;96787.22;5115558;28;20036;-94
2022/03/31 00:21:00;;;;;;;27.90;15.68;;;;;;;10.19;100.00;96764.34;5106957;28;20131;-95
2022/03/31 00:23:26;;;;;;;27.98;15.90;;;;;;;10.19;100.00;96758.16;5104961;28;20453;-94
2022/03/31 00:25:52;;;;;;;20.90;13.23;;;;;;;10.20;100.00;96749.25;5103727;28;20112;-95
2022/03/31 00:28:18;;;;;;;26.38;13.88;;;;;;;10.24;100.00;96748.13;5105006;28;20055;-94
2022/03/31 00:30:44;;;;;;;24.15;12.93;;;;;;;10.26;100.00;96744.44;5105112;28;20044;-96
2022/03/31 00:33:10;;;;;;;21.83;12.82;;;;;;;10.28;100.00;96733.72;5103907;28;20100;-95
2022/03/31 00:35:38;;;;;;;21.67;12.45;;;;;;;10.23;100.00;96730.47;5104620;28;20044;-94
2022/03/31 00:38:04;;;;;;;20.13;12.07;;;;;;;10.32;100.00;96740.56;5103152;28;20040;-94
2022/03/31 00:40:30;;;;;;;18.83;12.00;;;;;;;10.22;100.00;96723.47;5103527;28;20113;-94
2022/03/31 00:42:59;;;;;;;22.08;11.77;;;;;;;10.20;100.00;96715.56;5102314;28;20490;-96
2022/03/31 00:45:26;;;;;;;24.15;13.32;;;;;;;10.24;100.00;96711.78;5102509;28;20102;-95
2022/03/31 00:47:53;;;;;;;27.15;14.50;;;;;;;10.27;100.00;96706.28;5102498;28;20048;-95
2022/03/31 00:50:22;;;;;;;27.27;15.40;;;;;;;10.42;100.00;96715.19;5102475;28;20052;-94
2022/03/31 00:52:49;;;;;;;28.13;15.60;;;;;;;10.31;100.00;96688.41;5102156;28;20048;-96
2022/03/31 00:55:18;;;;;;;26.25;14.15;;;;;;;10.32;100.00;96698.06;5103614;28;20047;-95
2022/03/31 00:57:45;;;;;;;26.33;14.68;;;;;;;10.38;100.00;96681.78;5102787;28;20040;-94
2022/03/31 01:00:14;;;;;;;27.30;14.38;;;;;;;10.53;100.00;96703.91;5104532;28;20044;-94
2022/03/31 01:02:43;;;;;;;32.05;12.75;;;;;;;10.55;100.00;96701.19;5104986;28;20043;-94
2022/03/31 01:05:10;;;;;;;25.02;13.20;;;;;;;10.46;100.00;96668.03;5103536;28;20052;-95
2022/03/31 01:07:37;;;;;;;27.52;13.20;;;;;;;10.44;100.00;96654.00;5103221;28;20501;-95
2022/03/31 01:10:07;;;;;;;28.30;13.20;;;;;;;10.52;100.00;96672.13;5102863;28;20051;-94
2022/03/31 01:12:33;;;;;;;26.67;12.48;;;;;;;10.50;100.00;96653.63;5104251;28;20051;-94
2022/03/31 01:15:06;;;;;;;30.67;13.52;;;;;;;10.46;100.00;96644.13;5103768;28;20040;-95
2022/03/31 01:17:32;;;;;;;26.65;12.75;;;;;;;10.45;100.00;96645.94;5104346;28;20044;-95
2022/03/31 01:19:58;;;;;;;27.48;12.40;;;;;;;10.44;100.00;96641.56;5105040;28;20040;-94
2022/03/31 01:22:27;;;;;;;28.48;13.38;;;;;;;10.47;100.00;96636.06;5103403;28;20052;-93
2022/03/31 01:24:55;;;;;;;25.23;13.88;;;;;;;10.45;100.00;96634.44;5103978;28;20074;-95
2022/03/31 01:27:22;;;;;;;27.58;12.32;;;;;;;10.43;100.00;96637.22;5105323;28;20071;-95
2022/03/31 01:29:49;;;;;;;25.17;12.50;;;;;;;10.43;100.00;96642.53;5105393;28;20040;-95
2022/03/31 01:32:15;;;;;;;33.75;12.80;;;;;;;10.37;100.00;96636.72;5105284;28;20078;-94
2022/03/31 01:34:41;;;;;;;20.40;11.00;;;;;;;10.33;100.00;96630.72;5105755;28;20036;-95
2022/03/31 01:37:07;;;;;;;25.52;11.00;;;;;;;10.32;100.00;96639.63;5105633;28;20051;-94
2022/03/31 01:39:34;;;;;;;26.83;12.15;;;;;;;10.27;100.00;96636.38;5107042;28;20045;-95
2022/03/31 01:42:03;;;;;;;25.85;11.25;;;;;;;10.26;100.00;96629.38;5107113;28;20035;-96
2022/03/31 01:44:30;;;;;;;23.92;10.43;;;;;;;10.30;100.00;96638.91;5106810;28;20079;-96
2022/03/31 01:46:56;;;;;;;22.27;10.88;;;;;;;10.23;100.00;96627.72;5106721;28;20058;-95
2022/03/31 01:49:22;;;;;;;25.00;10.40;;;;;;;10.23;100.00;96616.25;5105569;28;20036;-95
2022/03/31 01:51:48;;;;;;;22.30;10.10;;;;;;;10.21;100.00;96616.38;5105865;28;20062;-95
2022/03/31 01:54:15;;;;;;;26.73;10.10;;;;;;;10.23;100.00;96605.63;5106177;28;20126;-95
2022/03/31 01:56:41;;;;;;;26.63;9.95;;;;;;;10.24;100.00;96602.03;5103574;28;20182;-94
2022/03/31 01:59:09;;;;;;;24.50;8.38;;;;;;;10.23;100.00;96600.31;5105678;28;20040;-96
2022/03/31 02:01:35;;;;;;;27.83;9.80;;;;;;;10.35;100.00;96612.91;5106792;28;20052;-95
2022/03/31 02:04:01;;;;;;;25.02;9.65;;;;;;;10.32;100.00;96598.94;5106558;28;20123;-96
2022/03/31 02:06:27;;;;;;;32.28;9.55;;;;;;;10.35;100.00;96591.66;5106338;28;20157;-94
2022/03/31 02:08:56;;;;;;;26.55;9.25;;;;;;;10.44;100.00;96587.56;5105714;28;20438;-94
2022/03/31 02:11:22;;;;;;;19.23;7.93;;;;;;;10.48;100.00;96589.09;5107207;28;20044;-96
2022/03/31 02:13:48;;;;;;;22.63;8.75;;;;;;;10.45;100.00;96568.88;5106724;28;20044;-95
2022/03/31 02:16:16;;;;;;;28.30;8.15;;;;;;;10.59;100.00;96599.91;5106360;28;20048;-94
2022/03/31 02:18:42;;;;;;;24.92;7.90;;;;;;;10.46;100.00;96567.91;5106265;28;20040;-96
2022/03/31 02:21:08;;;;;;;20.60;7.82;;;;;;;10.46;100.00;96564.41;5105792;28;20125;-95
2022/03/31 02:23:34;;;;;;;25.30;8.93;;;;;;;10.47;100.00;96553.69;5106890;28;20139;-95
2022/03/31 02:26:01;;;;;;;22.73;7.63;;;;;;;10.49;100.00;96564.22;5106190;28;20044;-95
2022/03/31 02:28:27;;;;;;;22.25;7.18;;;;;;;10.47;100.00;96558.13;5104918;28;20044;-96
2022/03/31 02:30:53;;;;;;;29.35;7.97;;;;;;;10.50;100.00;96551.81;5104977;28;20080;-94
2022/03/31 02:33:21;;;;;;;24.45;7.38;;;;;;;10.46;100.00;96551.97;5105190;28;20040;-95
2022/03/31 02:35:47;;;;;;;16.07;6.20;;;;;;;10.42;100.00;96550.44;5105759;28;20059;-94
2022/03/31 02:38:14;;;;;;;22.80;7.70;;;;;;;10.42;100.00;96550.44;5105597;28;20750;-95
2022/03/31 02:40:42;;;;;;;21.50;7.63;;;;;;;10.44;100.00;96555.69;5105586;28;20044;-95
2022/03/31 02:43:08;;;;;;;20.52;8.02;;;;;;;10.45;100.00;96557.38;5105334;28;20068;-95
2022/03/31 02:45:39;;;;;;;27.17;7.47;;;;;;;10.50;100.00;96567.75;5103931;28;20044;-95
2022/03/31 02:48:06;;;;;;;21.73;7.40;;;;;;;10.41;100.00;96547.88;5104936;28;20055;-95
2022/03/31 02:50:33;;;;;;;23.42;6.70;;;;;;;10.59;100.00;96573.34;5105282;28;20044;-95
2022/03/31 03:17:11;;;;;;;36.53;9.65;;;;;;;10.82;100.00;96566.59;6335267;22;1575703;-96
2022/03/31 03:19:37;;;;;;;26.88;8.45;;;;;;;10.69;100.00;96544.34;6392141;22;20409;-96
2022/03/31 03:22:06;;;;;;;29.33;8.35;;;;;;;10.70;100.00;96543.41;6395330;22;20070;-96
2022/03/31 03:24:32;;;;;;;;;;;;;;;10.88;100.00;96563.50;6393489;22;20432;-96
2022/03/31 03:26:58;;;;;;;36.65;9.38;;;;;;;10.77;100.00;96539.41;6392044;22;19934;-96
2022/03/31 03:29:24;;;;;;;38.63;9.88;;;;;;;10.72;100.00;96527.38;6391730;22;20041;-96
2022/03/31 03:31:52;;;;;;;38.13;11.10;;;;;;;10.78;100.00;96529.63;6390247;22;20022;-95
2022/03/31 03:34:19;;;;;;;30.88;9.82;;;;;;;10.76;100.00;96521.78;6393799;22;20018;-95
2022/03/31 03:36:46;;;;;;;30.20;9.25;;;;;;;10.78;100.00;96514.56;6361455;22;20025;-96
2022/03/31 03:39:12;;;;;;;31.98;9.10;;;;;;;10.77;100.00;96507.50;6362051;22;20022;-95
2022/03/31 03:41:38;;;;;;;31.15;9.30;;;;;;;10.90;100.00;96534.16;6359942;22;20025;-94
2022/03/31 03:44:05;;;;;;;27.88;9.00;;;;;;;10.89;100.00;96527.16;6359327;22;20387;-95
2022/03/31 03:46:31;;;;;;;30.50;8.93;;;;;;;10.75;100.00;96496.13;6360920;22;20019;-94
2022/03/31 03:48:57;;;;;;;34.42;9.68;;;;;;;10.77;100.00;96483.59;6360902;22;20015;-94
2022/03/31 03:51:24;;;;;;;40.05;9.80;;;;;;;10.80;100.00;96488.72;6358671;22;20015;-95
2022/03/31 03:53:50;;;;;;;37.97;9.95;;;;;;;10.87;100.00;96489.19;6359416;22;20019;-95
2022/03/31 03:56:17;;;;;;;32.53;8.85;;;;;;;10.80;100.00;96485.19;6359166;22;20066;-94
2022/03/31 03:58:43;;;;;;;47.85;10.45;;;;;;;10.75;100.00;96482.84;6358594;22;20026;-96
2022/03/31 04:01:09;;;;;;;36.92;9.43;;;;;;;10.77;100.00;96470.28;6359166;22;20019;-95
2022/03/31 04:03:35;;;;;;;35.22;10.07;;;;;;;10.87;100.00;96486.53;6359954;22;20018;-96
2022/03/31 04:06:02;;;;;;;42.83;10.38;;;;;;;10.81;100.00;96462.97;6357156;22;20011;-96
2022/03/31 04:08:29;;;;;;;48.55;11.57;;;;;;;10.84;100.00;96466.31;6356076;22;20026;-96
2022/03/31 04:10:55;;;;;;;31.63;10.13;;;;;;;10.83;100.00;96455.75;6357426;22;20025;-95
2022/03/31 04:13:21;;;;;;;33.63;12.10;;;;;;;10.83;100.00;96448.63;6357345;22;20018;-94
2022/03/31 04:15:47;;;;;;;44.60;10.77;;;;;;;10.85;100.00;96440.56;6358500;22;20069;-95
2022/03/31 04:18:13;;;;;;;36.10;11.50;;;;;;;10.85;100.00;96436.09;6350723;22;20440;-95
2022/03/31 04:20:39;;;;;;;40.97;11.25;;;;;;;10.97;100.00;96455.69;6350993;22;20015;-96
2022/03/31 04:23:05;;;;;;;34.50;11.93;;;;;;;10.84;100.00;96428.22;6350637;22;20019;-95
2022/03/31 04:25:33;;;;;;;42.55;11.50;;;;;;;10.96;100.00;96442.53;6349970;22;20011;-95
2022/03/31 04:27:59;;;;;;;39.17;11.68;;;;;;;10.86;100.00;96423.66;6350586;22;20095;-95
2022/03/31 04:30:26;;;;;;;33.78;11.63;;;;;;;11.02;100.00;96450.09;6351032;22;20080;-94
2022/03/31 04:32:52;;;;;;;32.63;11.27;;;;;;;10.86;100.00;96436.94;6351282;22;20021;-95
2022/03/31 04:35:19;;;;;;;41.25;12.73;;;;;;;10.83;100.00;96430.03;6351423;22;20014;-96
2022/03/31 04:37:45;;;;;;;37.20;10.93;;;;;;;10.84;100.00;96431.75;6351762;22;20485;-94
2022/03/31 04:40:14;;;;;;;36.83;11.30;;;;;;;10.79;100.00;96425.00;6350637;22;20022;-94
2022/03/31 04:42:41;;;;;;;41.65;11.75;;;;;;;10.82;100.00;96428.34;6351274;22;20014;-95
2022/03/31 04:45:08;;;;;;;37.20;11.23;;;;;;;10.95;100.00;96444.34;6350631;22;20010;-94
2022/03/31 04:47:34;;;;;;;42.10;13.65;;;;;;;10.87;100.00;96436.84;6348650;22;20015;-95
2022/03/31 04:50:01;;;;;;;36.95;11.50;;;;;;;10.85;100.00;96432.59;6350098;22;20015;-96
2022/03/31 04:52:26;;;;;;;50.45;13.18;;;;;;;10.84;100.00;96430.88;6348671;22;20341;-95
2022/03/31 04:54:55;;;;;;;40.50;13.43;;;;;;;10.96;100.00;96450.50;6349187;22;20011;-94
2022/03/31 04:57:21;;;;;;;46.90;12.40;;;;;;;10.85;100.00;96428.13;6350432;22;20057;-95
2022/03/31 04:59:49;;;;;;;48.22;13.02;;;;;;;10.89;100.00;96432.28;6350297;22;20161;-96
2022/03/31 05:02:16;;;;;;;36.00;12.63;;;;;;;10.88;100.00;96433.22;6349683;22;20050;-94
2022/03/31 05:04:42;;;;;;;62.72;13.80;;;;;;;10.87;100.00;96428.88;6348941;22;20011;-94
2022/03/31 05:07:08;;;;;;;43.58;14.63;;;;;;;10.96;100.00;96443.38;6350796;22;20021;-96
2022/03/31 05:09:34;;;;;;;51.33;15.20;;;;;;;10.94;100.00;96420.50;6350688;22;20014;-95
2022/03/31 05:12:00;;;;;;;54.40;15.98;;;;;;;10.89;100.00;96421.66;6351143;22;20041;-95
2022/03/31 05:14:26;;;;;;;55.95;15.95;;;;;;;11.00;100.00;96438.72;6350337;22;20015;-96
2022/03/31 05:16:54;;;;;;;58.45;20.77;;;;;;;10.95;100.00;96416.88;6349500;22;20019;-94
2022/03/31 05:19:20;;;;;;;51.25;16.20;;;;;;;10.93;100.00;96417.00;6350425;22;20041;-94
2022/03/31 05:21:46;;;;;;;63.33;15.70;;;;;;;10.92;100.00;96415.28;6352241;22;20018;-95
2022/03/31 05:24:12;;;;;;;57.30;15.75;;;;;;;10.92;100.00;96409.94;6350923;22;20015;-95
2022/03/31 05:26:38;;;;;;;55.50;15.60;;;;;;;10.98;100.00;96422.00;6349478;22;20018;-95
2022/03/31 05:29:04;;;;;;;59.83;17.40;;;;;;;11.01;100.00;96421.78;6349836;22;20054;-96
2022/03/31 05:31:30;;;;;;;54.47;16.23;;;;;;;10.94;100.00;96418.69;6347740;22;20468;-94
2022/03/31 05:33:57;;;;;;;61.00;18.25;;;;;;;11.02;100.00;96420.84;6348550;22;20019;-95
2022/03/31 05:36:23;;;;;;;57.13;16.35;;;;;;;10.97;100.00;96405.16;6349535;22;20021;-95
2022/03/31 05:38:49;;;;;;;70.82;18.92;;;;;;;11.08;100.00;96420.41;6348700;22;20015;-95
2022/03/31 05:41:15;;;;;;;62.25;18.48;;;;;;;11.17;100.00;96429.59;6347912;22;20019;-95
2022/03/31 05:43:42;;;;;;;63.90;17.27;;;;;;;11.08;100.00;96409.78;6348962;22;20018;-95
2022/03/31 05:46:08;;;;;;;71.63;18.27;;;;;;;11.06;100.00;96414.34;6347509;22;20010;-96
2022/03/31 05:56:10;;;;;;;60.03;16.67;;;;;;;11.07;100.00;96402.75;6073252;23;20022;-96
2022/03/31 05:58:36;;;;;;;56.67;16.00;;;;;;;11.11;100.00;96406.94;6075371;23;20023;-95
2022/03/31 06:01:04;;;;;;;48.90;14.55;;;;;;;11.32;100.00;96431.25;6073754;23;20019;-94
2022/03/31 06:03:30;;;;;;;61.30;15.85;;;;;;;11.29;100.00;96426.09;6073062;23;20071;-94
2022/03/31 06:05:56;;;;;;;58.13;16.10;;;;;;;11.25;100.00;96404.16;6075598;23;20015;-95
2022/03/31 06:08:23;;;;;;;57.40;15.38;;;;;;;11.27;100.00;96402.25;6075318;23;20025;-95
2022/03/31 06:10:49;;;;;;;55.17;17.70;;;;;;;11.31;100.00;96413.56;6075294;23;20019;-94
2022/03/31 06:13:16;;;;;;;61.10;15.27;;;;;;;11.31;100.00;96403.75;6074934;23;20049;-93
2022/03/31 06:15:42;;;;;;;57.30;14.75;;;;;;;11.34;100.00;96396.53;6074707;23;20059;-95
2022/03/31 06:18:15;;;;;;;49.38;15.05;;;;;;;11.32;100.00;96391.34;6074056;23;20025;-95
2022/03/31 06:20:41;;;;;;;59.13;16.25;;;;;;;11.39;100.00;96405.06;6074070;23;20106;-94
2022/03/31 06:23:07;;;;;;;67.88;17.42;;;;;;;11.44;100.00;96402.94;6199726;23;20016;-96
2022/03/31 06:25:33;;;;;;;52.13;16.52;;;;;;;11.44;100.00;96402.94;6223582;23;20052;-95
2022/03/31 06:27:59;;;;;;;55.15;15.50;;;;;;;11.56;100.00;96425.19;6230545;22;20545;-95
2022/03/31 06:30:27;;;;;;;54.70;17.33;;;;;;;11.54;100.00;96405.78;6346503;22;20045;-95
2022/03/31 06:32:53;;;;;;;58.03;17.10;;;;;;;11.55;100.00;96402.19;6344963;22;20391;-94
2022/03/31 06:35:19;;;;;;;65.35;17.92;;;;;;;11.66;100.00;96427.09;6344327;22;20011;-94
2022/03/31 06:37:48;;;;;;;61.38;17.67;;;;;;;11.65;100.00;96417.44;6344748;22;20065;-95
2022/03/31 06:40:17;;;;;;;59.97;19.70;;;;;;;11.65;100.00;96419.25;6344432;22;20023;-96
2022/03/31 06:42:43;;;;;;;;;;;;;;;11.72;100.00;96432.00;6347682;22;20125;-94
2022/03/31 06:45:14;;;;;;;59.90;17.70;;;;;;;11.69;100.00;96421.59;6345581;22;19921;-96
2022/03/31 06:47:42;;;;;;;57.10;16.00;;;;;;;11.70;100.00;96415.28;6344186;22;20070;-96
2022/03/31 06:50:09;;;;;;;69.90;18.27;;;;;;;11.71;100.00;96425.00;6346854;22;20076;-94
2022/03/31 06:52:35;;;;;;;60.10;16.15;;;;;;;11.66;100.00;96389.00;6343236;22;20387;-93
2022/03/31 06:55:01;;;;;;;55.45;15.50;;;;;;;11.84;100.00;96419.69;6343239;22;20011;-95
2022/03/31 06:57:27;;;;;;;60.75;17.42;;;;;;;11.77;100.00;96391.75;6342895;22;20040;-95
2022/03/31 06:59:53;;;;;;;49.30;15.65;;;;;;;11.87;100.00;96395.47;6344435;22;20023;-95
2022/03/31 07:02:19;;;;;;;61.47;16.25;;;;;;;11.81;100.00;96387.06;6343693;22;20441;-96
2022/03/31 07:04:46;;;;;;;57.63;14.40;;;;;;;11.90;100.00;96387.28;6344379;22;20015;-92
2022/03/31 07:07:12;;;;;;;57.40;14.93;;;;;;;11.87;100.00;96381.31;6342906;22;20033;-94
2022/03/31 07:09:38;;;;;;;50.85;15.05;;;;;;;11.98;100.00;96396.56;6344750;22;20034;-96
2022/03/31 07:12:04;;;;;;;44.53;13.80;;;;;;;11.96;100.00;96404.66;6343960;22;20053;-95
2022/03/31 07:14:33;;;;;;;56.25;15.55;;;;;;;11.85;100.00;96388.56;6344757;22;20019;-95
2022/03/31 07:16:59;;;;;;;40.88;13.90;;;;;;;12.06;100.00;96408.38;6345084;22;20154;-94
2022/03/31 07:19:25;;;;;;;41.45;12.93;;;;;;;11.96;100.00;96386.03;6344465;22;20015;-94
2022/03/31 07:21:52;;;;;;;41.75;14.63;;;;;;;12.03;100.00;96397.09;6347309;22;20119;-94
2022/03/31 07:24:18;;;;;;;48.80;12.88;;;;;;;12.21;100.00;96419.78;6345843;22;20014;-94
2022/03/31 07:26:44;;;;;;;46.80;13.15;;;;;;;12.11;100.00;96402.72;6346460;22;20011;-93
2022/03/31 07:29:10;;;;;;;46.15;13.55;;;;;;;12.06;100.00;96403.06;6348199;22;20015;-95
2022/03/31 07:31:36;;;;;;;67.10;13.85;;;;;;;12.03;100.00;96400.59;6344071;22;20022;-94
2022/03/31 07:34:02;;;;;;;45.55;13.68;;;;;;;12.06;100.00;96400.41;6345893;22;20015;-94
2022/03/31 07:36:28;;;;;;;55.17;14.63;;;;;;;12.27;100.00;96421.13;6346117;22;20015;-94
2022/03/31 07:38:56;;;;;;;35.53;11.57;;;;;;;12.23;100.00;96412.53;6345706;22;20037;-95
2022/03/31 07:41:22;;;;;;;52.45;13.75;;;;;;;12.41;100.00;96409.50;6345869;22;20014;-93
2022/03/31 07:43:48;;;;;;;42.38;11.88;;;;;;;12.43;100.00;96402.25;6344937;22;20041;-95
2022/03/31 07:46:17;;;;;;;43.33;11.82;;;;;;;12.77;100.00;96429.94;6347346;22;20011;-95
2022/03/31 07:48:43;;;;;;;40.92;12.48;;;;;;;12.70;100.00;96402.03;6346643;22;20019;-94
2022/03/31 07:51:09;;;;;;;53.83;12.48;;;;;;;12.81;100.00;96410.09;6348290;22;20318;-95
2022/03/31 07:53:35;;;;;;;39.45;11.50;;;;;;;12.91;100.00;96408.44;6348882;22;20018;-96
2022/03/31 07:56:04;;;;;;;41.05;11.23;;;;;;;12.98;100.00;96405.31;6346811;22;20014;-94
2022/03/31 07:58:30;;;;;;;;;;;;;;;13.22;100.00;96438.16;6349476;22;20015;-94
2022/03/31 08:00:56;;;;;;;41.35;11.15;;;;;;;13.01;100.00;96413.09;6352187;22;19914;-94
2022/03/31 08:03:22;;;;;;;33.92;11.38;;;;;;;12.94;100.00;96418.03;6351190;22;20015;-95
2022/03/31 08:05:49;;;;;;;43.35;12.55;;;;;;;12.87;100.00;96409.63;6351297;22;20017;-94
2022/03/31 08:08:15;;;;;;;39.67;10.10;;;;;;;12.79;100.00;96414.69;6349812;22;20019;-96
2022/03/31 08:10:41;;;;;;;37.47;10.73;;;;;;;12.76;100.00;96422.06;6351531;22;20011;-96
2022/03/31 08:13:10;;;;;;;38.75;10.75;;;;;;;12.95;100.00;96443.75;6351309;22;20441;-94
2022/03/31 08:15:37;;;;;;;43.85;11.38;;;;;;;12.94;100.00;96450.03;6349602;22;20022;-92
2022/03/31 08:18:03;;;;;;;31.70;10.18;;;;;;;12.81;100.00;96415.41;6349879;22;20018;-96
2022/03/31 08:20:30;;;;;;;46.30;10.90;;;;;;;12.82;100.00;96427.81;6351530;22;20014;-95
2022/03/31 08:22:56;;;;;;;40.33;10.30;;;;;;;12.82;100.00;96422.47;6353269;22;20018;-94
2022/03/31 08:25:22;;;;;;;46.22;11.13;;;;;;;12.85;100.00;96422.22;6352149;22;20021;-95
2022/03/31 08:27:49;;;;;;;36.78;11.88;;;;;;;12.91;100.00;96424.44;6352834;22;20018;-96
2022/03/31 08:30:20;;;;;;;44.85;10.15;;;;;;;12.93;100.00;96425.19;6352834;22;20019;-95
2022/03/31 08:32:47;;;;;;;44.10;10.68;;;;;;;13.19;100.00;96445.56;6355693;22;20029;-96
2022/03/31 08:35:15;;;;;;;39.47;9.82;;;;;;;12.85;100.00;96421.38;6356078;22;20015;-94
2022/03/31 08:37:42;;;;;;;40.83;9.68;;;;;;;12.73;100.00;96420.50;6353413;22;20033;-95
2022/03/31 08:40:11;;;;;;;32.90;10.93;;;;;;;12.77;100.00;96423.75;6352235;22;20030;-94
2022/03/31 08:42:38;;;;;;;40.20;10.30;;;;;;;12.68;100.00;96425.28;6353493;22;20021;-94
2022/03/31 08:45:10;;;;;;;32.65;8.85;;;;;;;12.76;100.00;96440.75;6354192;22;20015;-95
2022/03/31 08:47:39;;;;;;;32.42;9.35;;;;;;;12.53;100.00;96425.47;6351571;22;20390;-95
2022/03/31 08:50:07;;;;;;;27.08;7.95;;;;;;;12.51;100.00;96422.06;6352935;22;20093;-95
2022/03/31 08:52:33;;;;;;;35.08;9.68;;;;;;;12.50;100.00;96427.47;6354831;22;20019;-93
2022/03/31 08:54:59;;;;;;;38.95;10.05;;;;;;;12.57;100.00;96436.72;6355660;22;20072;-94
2022/03/31 08:57:43;;;;;;;30.95;8.88;;;;;;;12.54;100.00;96413.81;6351612;22;20045;-95
2022/03/31 09:00:12;;;;;;;36.00;9.35;;;;;;;12.59;100.00;96423.31;6352061;22;20018;-96
2022/03/31 09:02:51;;;;;;;27.45;8.25;;;;;;;12.61;100.00;96418.72;6354530;22;20039;-95
2022/03/31 09:05:19;;;;;;;39.63;10.70;;;;;;;12.67;100.00;96427.09;6353413;22;20017;-96
2022/03/31 09:07:53;;;;;;;36.75;10.73;;;;;;;12.71;100.00;96422.41;6351777;22;20018;-96
2022/03/31 09:10:31;;;;;;;38.90;13.73;;;;;;;12.69;100.00;96427.00;6351781;22;20011;-95
2022/03/31 09:13:00;;;;;;;40.50;10.55;;;;;;;12.66;100.00;96427.22;6353785;22;20022;-94
2022/03/31 09:15:29;;;;;;;36.65;11.85;;;;;;;12.62;100.00;96423.06;6354118;22;20078;-95
2022/03/31 09:17:59;;;;;;;38.70;10.18;;;;;;;12.84;100.00;96459.72;6351169;22;20034;-94
2022/03/31 09:20:35;;;;;;;38.05;9.85;;;;;;;12.70;100.00;96439.38;6348705;22;20032;-94
2022/03/31 09:23:01;;;;;;;40.33;9.77;;;;;;;12.59;100.00;96431.31;6347359;22;20041;-96
2022/03/31 09:25:33;;;;;;;27.75;9.48;;;;;;;12.57;100.00;96441.22;6348827;22;20015;-96
2022/03/31 09:28:11;;;;;;;29.85;10.48;;;;;;;12.45;100.00;96419.81;6345439;22;20026;-94
2022/03/31 09:30:43;;;;;;;32.63;10.60;;;;;;;12.40;100.00;96427.28;6344989;22;20022;-93
2022/03/31 09:33:11;;;;;;;38.55;11.30;;;;;;;12.52;100.00;96433.56;6348296;22;20014;-96
2022/03/31 09:35:38;;;;;;;32.67;10.63;;;;;;;12.68;100.00;96434.13;6346044;22;20084;-94
2022/03/31 09:38:11;;;;;;;41.45;9.82;;;;;;;12.68;100.00;96415.47;6346643;22;20042;-94
2022/03/31 09:40:39;;;;;;;36.50;11.07;;;;;;;12.94;100.00;96421.53;6347557;22;20337;-95
2022/03/31 09:43:06;;;;;;;34.05;11.20;;;;;;;12.93;100.00;96411.00;6346589;22;20050;-95
2022/03/31 09:45:38;;;;;;;42.22;11.30;;;;;;;13.11;100.00;96414.94;6346993;22;20015;-96
2022/03/31 09:48:08;;;;;;;30.73;10.43;;;;;;;13.45;100.00;96415.13;6347320;22;20490;-95
2022/03/31 09:50:36;;;;;;;37.70;10.63;;;;;;;13.64;100.00;96401.22;6346928;22;20019;-95
2022/03/31 09:53:03;;;;;;;38.65;10.18;;;;;;;13.89;100.00;96409.97;6347276;22;20014;-95
2022/03/31 09:55:30;;;;;;;29.55;8.52;;;;;;;13.84;100.00;96399.66;6345863;22;20108;-95
2022/03/31 09:57:57;;;;;;;29.35;8.77;;;;;;;13.71;100.00;96398.91;6349479;22;20475;-95
2022/03/31 10:00:24;;;;;;;24.48;8.77;;;;;;;13.66;100.00;96404.63;6349558;22;20094;-96
2022/03/31 10:02:51;;;;;;;33.63;8.20;;;;;;;13.69;100.00;96398.19;6349214;22;20033;-96
2022/03/31 10:05:18;;;;;;;25.88;8.75;;;;;;;13.71;100.00;96404.25;6347078;22;20011;-96
2022/03/31 10:07:48;;;;;;;24.80;8.98;;;;;;;14.02;98.87;96410.72;6347413;22;20029;-94
2022/03/31 10:10:14;;;;;;;26.23;8.27;;;;;;;13.80;99.39;96381.31;6351786;22;20067;-96
2022/03/31 10:12:46;;;;;;;30.40;9.60;;;;;;;14.16;98.10;96382.88;6350132;22;20022;-93
2022/03/31 10:15:19;;;;;;;28.52;8.63;;;;;;;14.44;96.09;96381.50;6350162;22;20022;-93
2022/03/31 10:17:49;;;;;;;33.55;9.00;;;;;;;14.47;95.36;96380.44;6349593;22;20019;-94
2022/03/31 10:20:16;;;;;;;29.92;9.02;;;;;;;14.20;96.32;96381.66;6349550;22;20034;-95
2022/03/31 10:26:02;;;;;;;35.47;9.68;;;;;;;13.86;98.37;96379.00;5161504;27;20385;-96
2022/03/31 10:28:35;;;;;;;32.63;10.25;;;;;;;13.91;97.07;96400.88;5160339;27;20047;-95
2022/03/31 10:31:04;;;;;;;29.35;10.32;;;;;;;13.81;97.39;96366.97;5163970;27;20062;-94
2022/03/31 10:33:32;;;;;;;34.03;11.27;;;;;;;13.83;97.69;96357.88;5160723;27;20520;-95
2022/03/31 10:36:09;;;;;;;37.67;9.13;;;;;;;13.79;95.47;96353.72;5156758;27;20271;-94
2022/03/31 10:38:37;;;;;;;32.72;9.38;;;;;;;13.97;95.17;96352.28;5158946;27;20039;-95
2022/03/31 10:41:08;;;;;;;29.33;8.48;;;;;;;14.32;93.41;96375.34;5158203;27;20545;-94
2022/03/31 10:43:39;;;;;;;28.17;7.90;;;;;;;14.34;93.13;96327.97;5158764;27;20457;-93
2022/03/31 10:46:14;;;;;;;26.15;9.13;;;;;;;14.66;92.22;96363.75;5158484;27;20110;-93
2022/03/31 10:48:48;;;;;;;25.50;8.40;;;;;;;14.60;90.69;96348.25;5158322;27;20055;-93
2022/03/31 10:51:14;;;;;;;33.53;8.82;;;;;;;14.78;90.18;96342.19;5161643;27;20035;-94
2022/03/31 10:53:45;;;;;;;32.03;9.82;;;;;;;14.85;89.14;96337.19;5161166;27;20058;-92
2022/03/31 10:56:19;;;;;;;26.58;8.52;;;;;;;14.83;89.94;96338.28;5161007;27;20039;-94
2022/03/31 10:58:45;;;;;;;23.73;9.05;;;;;;;14.96;90.70;96361.25;5162283;27;20035;-93
2022/03/31 11:01:12;;;;;;;27.27;8.43;;;;;;;14.57;91.57;96335.94;5161712;27;20050;-95
2022/03/31 11:03:38;;;;;;;23.60;9.00;;;;;;;14.84;91.56;96372.97;5160620;27;20058;-95
2022/03/31 11:06:07;;;;;;;29.55;7.05;;;;;;;14.60;89.96;96353.59;5160166;27;20035;-95
2022/03/31 11:08:41;;;;;;;22.35;7.82;;;;;;;14.45;89.68;96336.94;5160413;27;20054;-94
2022/03/31 11:11:08;;;;;;;26.10;7.20;;;;;;;14.71;88.39;96326.78;5160459;27;20051;-95
2022/03/31 11:13:35;;;;;;;26.10;7.05;;;;;;;14.78;88.08;96336.00;5160529;27;20046;-95
2022/03/31 11:16:01;;;;;;;23.17;8.10;;;;;;;14.83;88.97;96365.06;5157479;27;20487;-95
2022/03/31 11:18:28;;;;;;;25.27;8.20;;;;;;;14.47;91.41;96343.00;5159916;27;20046;-94
2022/03/31 11:20:57;;;;;;;28.90;7.85;;;;;;;14.53;90.42;96348.69;5159520;27;20114;-93
2022/03/31 11:23:24;;;;;;;22.90;7.28;;;;;;;14.41;91.65;96347.00;5156557;27;20065;-92
2022/03/31 11:25:50;;;;;;;20.65;7.55;;;;;;;14.46;91.66;96335.94;5155207;27;20054;-94
2022/03/31 11:28:16;;;;;;;20.73;8.57;;;;;;;14.59;92.25;96352.72;5155914;27;20121;-95
2022/03/31 11:30:45;;;;;;;27.98;9.07;;;;;;;14.42;91.97;96347.84;5156446;27;20046;-94
2022/03/31 11:33:14;;;;;;;24.50;8.25;;;;;;;14.15;91.56;96344.63;5156141;27;20065;-93
2022/03/31 11:35:40;;;;;;;25.27;7.57;;;;;;;14.14;90.00;96342.94;5149996;27;20070;-95
2022/03/31 11:38:11;;;;;;;21.10;7.60;;;;;;;14.12;90.66;96330.69;5142203;27;20411;-94
2022/03/31 11:40:40;;;;;;;23.80;6.82;;;;;;;14.11;90.19;96326.28;5143194;27;20050;-94
2022/03/31 11:43:08;;;;;;;29.40;7.87;;;;;;;14.13;91.44;96340.38;5143579;27;20067;-93
2022/03/31 11:45:36;;;;;;;21.42;6.50;;;;;;;14.26;89.97;96341.09;5147289;27;20294;-95
2022/03/31 11:48:08;;;;;;;17.23;6.18;;;;;;;14.25;88.65;96311.78;5144584;27;20062;-94
2022/03/31 11:50:39;;;;;;;21.00;7.05;;;;;;;14.40;88.26;96318.59;5145886;27;20488;-94